Time;durP1;ratioP1;P1;durP2;ratioP2;P2;SDS_P1;SDS_P2;PMS_P1;PMS_P2;Temp;Humidity;BMP_temperature;BMP_pressure;BME280_temperature;BME280_humidity;BME280_pressure;Samples;Min_cycle;Max_cycle;Signal;HPM_P1;HPM_P2
2023/02/08 00:00:25;;;;;;;22.53;14.67;;;-0.80;99.90;;;;;;4928669;29;20210;-78
2023/02/08 00:02:52;;;;;;;20.60;14.13;;;-0.90;99.90;;;;;;4927255;29;20210;-77
2023/02/08 00:05:19;;;;;;;24.30;15.63;;;-0.90;99.90;;;;;;4937618;29;20245;-77
2023/02/08 00:07:46;;;;;;;21.37;14.93;;;-0.90;99.90;;;;;;4946517;28;20204;-78
2023/02/08 00:10:13;;;;;;;23.27;16.07;;;-1.00;99.90;;;;;;4946202;29;20205;-78
2023/02/08 00:12:40;;;;;;;22.80;15.77;;;-1.00;99.90;;;;;;4946539;28;20213;-77
2023/02/08 00:15:07;;;;;;;20.87;15.13;;;-1.00;99.90;;;;;;4928251;28;20243;-76
2023/02/08 00:17:36;;;;;;;22.00;14.13;;;-1.00;99.90;;;;;;4928237;29;20265;-80
2023/02/08 00:20:03;;;;;;;25.23;15.93;;;-1.00;99.90;;;;;;4930280;29;20246;-81
2023/02/08 00:22:31;;;;;;;22.47;14.90;;;-1.00;99.90;;;;;;4930329;29;20206;-80
2023/02/08 00:24:58;;;;;;;23.43;16.03;;;-1.00;99.90;;;;;;4929135;29;20209;-79
2023/02/08 00:27:25;;;;;;;22.73;15.40;;;-1.00;99.90;;;;;;4927677;29;20285;-78
2023/02/08 00:29:51;;;;;;;24.13;14.90;;;-1.00;99.90;;;;;;4927060;28;20217;-77
2023/02/08 00:32:18;;;;;;;23.17;15.70;;;-1.00;99.90;;;;;;4926931;29;20366;-78
2023/02/08 00:34:47;;;;;;;21.80;14.70;;;-1.00;99.90;;;;;;4927247;29;20216;-79
2023/02/08 00:37:14;;;;;;;23.37;15.33;;;-1.00;99.90;;;;;;4927298;29;20202;-78
2023/02/08 00:39:41;;;;;;;23.50;15.03;;;-1.00;99.90;;;;;;4926774;29;20292;-76
2023/02/08 00:42:07;;;;;;;22.20;14.23;;;-1.00;99.90;;;;;;4926892;29;20220;-77
2023/02/08 00:44:34;;;;;;;24.33;14.73;;;-1.00;99.90;;;;;;4926711;29;20626;-78
2023/02/08 00:47:01;;;;;;;23.23;15.30;;;-1.00;99.90;;;;;;4926913;29;20241;-79
2023/02/08 00:49:28;;;;;;;21.00;13.90;;;-1.10;99.90;;;;;;4926924;29;20205;-78
2023/02/08 00:51:56;;;;;;;22.17;14.90;;;-1.00;99.90;;;;;;4926576;29;20206;-79
2023/02/08 00:54:23;;;;;;;23.97;15.13;;;-1.00;99.90;;;;;;4926380;29;20206;-78
2023/02/08 00:56:50;;;;;;;23.67;14.83;;;-1.00;99.90;;;;;;4926246;29;20268;-80
2023/02/08 00:59:17;;;;;;;21.60;14.63;;;-1.10;99.90;;;;;;4925590;29;20236;-78
2023/02/08 01:01:44;;;;;;;22.90;14.63;;;-1.10;99.90;;;;;;4926599;29;20214;-80
2023/02/08 01:04:11;;;;;;;23.23;15.10;;;-1.10;99.90;;;;;;4926386;29;20248;-77
2023/02/08 01:06:38;;;;;;;20.27;14.53;;;-1.10;99.90;;;;;;4925618;29;20213;-80
2023/02/08 01:09:07;;;;;;;19.17;13.23;;;-1.10;99.90;;;;;;4926324;29;20213;-79
2023/02/08 01:11:33;;;;;;;21.80;13.93;;;-1.10;99.90;;;;;;4926018;29;20206;-77
2023/02/08 01:14:01;;;;;;;23.93;15.13;;;-1.10;99.90;;;;;;4925620;29;20236;-78
2023/02/08 01:16:29;;;;;;;21.70;14.27;;;-1.10;99.90;;;;;;4926245;29;20206;-78
2023/02/08 01:18:58;;;;;;;23.27;14.90;;;-1.10;99.90;;;;;;4926236;28;20316;-79
2023/02/08 01:21:27;;;;;;;23.50;15.47;;;-1.20;99.90;;;;;;4926128;29;20206;-79
2023/02/08 01:23:54;;;;;;;25.13;15.57;;;-1.20;99.90;;;;;;4926067;29;20204;-80
2023/02/08 01:26:24;;;;;;;27.63;16.63;;;-1.20;99.90;;;;;;4925238;29;20221;-78
2023/02/08 01:28:53;;;;;;;23.50;16.17;;;-1.20;99.90;;;;;;4925175;29;20321;-78
2023/02/08 01:31:21;;;;;;;23.10;15.37;;;-1.20;99.90;;;;;;4925859;29;20619;-78
2023/02/08 01:33:49;;;;;;;24.23;15.57;;;-1.30;99.90;;;;;;4944477;29;20869;-78
2023/02/08 01:36:16;;;;;;;23.67;14.37;;;-1.30;99.90;;;;;;4945231;29;20239;-79
2023/02/08 01:38:43;;;;;;;21.77;14.07;;;-1.30;99.90;;;;;;4944275;28;20615;-79
2023/02/08 01:41:16;;;;;;;24.33;15.70;;;-1.30;99.90;;;;;;4935071;29;20297;-79
2023/02/08 01:44:08;;;;;;;26.97;17.00;;;-1.30;99.90;;;;;;4925550;29;20198;-79
2023/02/08 01:46:37;;;;;;;20.40;14.03;;;-1.30;99.90;;;;;;4924964;29;20202;-78
2023/02/08 01:49:09;;;;;;;20.60;14.47;;;-1.30;99.90;;;;;;4924966;29;20202;-78
2023/02/08 01:51:40;;;;;;;25.13;14.87;;;-1.30;99.90;;;;;;4925188;29;20216;-78
2023/02/08 01:54:10;;;;;;;22.27;14.23;;;-1.30;99.90;;;;;;4925202;29;20198;-80
2023/02/08 01:56:40;;;;;;;22.13;15.27;;;-1.30;99.90;;;;;;4925007;29;20252;-78
2023/02/08 01:59:13;;;;;;;23.57;15.57;;;-1.30;99.90;;;;;;4925988;29;20705;-79
2023/02/08 02:01:40;;;;;;;23.93;14.70;;;-1.30;99.90;;;;;;4925493;29;20217;-79
2023/02/08 02:04:08;;;;;;;23.50;15.03;;;-1.30;99.90;;;;;;4923974;29;20246;-79
2023/02/08 02:06:38;;;;;;;24.20;15.10;;;-1.30;99.90;;;;;;4925266;29;20241;-78
2023/02/08 02:09:11;;;;;;;28.17;17.10;;;-1.30;99.90;;;;;;4925014;29;20333;-79
2023/02/08 02:11:38;;;;;;;22.33;14.80;;;-1.40;99.90;;;;;;4924607;29;20210;-79
2023/02/08 02:14:06;;;;;;;24.80;15.83;;;-1.40;99.90;;;;;;4925220;29;20276;-79
2023/02/08 02:16:34;;;;;;;23.70;15.37;;;-1.40;99.90;;;;;;4923990;29;20326;-79
2023/02/08 02:19:01;;;;;;;21.43;13.70;;;-1.40;99.90;;;;;;4925169;29;20664;-80
2023/02/08 02:21:49;;;;;;;24.23;15.10;;;-1.40;99.90;;;;;;4925354;29;20280;-79
2023/02/08 02:24:49;;;;;;;21.67;13.87;;;-1.40;99.90;;;;;;4924295;29;20210;-78
2023/02/08 02:27:46;;;;;;;20.60;14.67;;;-1.50;99.90;;;;;;4922593;29;20578;-78
2023/02/08 02:31:05;;;;;;;20.97;13.47;;;-1.50;99.90;;;;;;4925349;28;20313;-77
2023/02/08 02:33:53;;;;;;;22.07;15.00;;;-1.50;99.90;;;;;;4865248;29;20215;-78
2023/02/08 02:36:28;;;;;;;22.17;14.53;;;-1.50;99.90;;;;;;4926707;29;20216;-78
2023/02/08 02:39:05;;;;;;;24.17;15.07;;;-1.50;99.90;;;;;;4928731;29;20233;-78
2023/02/08 02:44:35;;;;;;;23.10;14.40;;;-1.50;99.90;;;;;;4929250;29;20220;-78
2023/02/08 02:47:10;;;;;;;22.50;13.13;;;-1.50;99.90;;;;;;4929664;28;20814;-77
2023/02/08 02:49:47;;;;;;;21.70;14.53;;;-1.50;99.90;;;;;;4929293;29;21044;-76
2023/02/08 02:52:19;;;;;;;21.37;13.90;;;-1.50;99.90;;;;;;4928791;28;20197;-78
2023/02/08 02:54:51;;;;;;;21.37;14.23;;;-1.50;99.90;;;;;;4928765;29;20220;-77
2023/02/08 02:57:24;;;;;;;22.77;15.70;;;-1.50;99.90;;;;;;4929547;29;20261;-78
2023/02/08 02:59:51;;;;;;;21.73;15.00;;;-1.50;99.90;;;;;;4935621;29;20220;-78
2023/02/08 03:02:18;;;;;;;23.53;14.67;;;-1.50;99.90;;;;;;4948383;29;20776;-77
2023/02/08 03:04:54;;;;;;;22.50;14.67;;;-1.60;99.90;;;;;;4931383;29;20789;-77
2023/02/08 03:07:37;;;;;;;24.07;15.20;;;-1.50;99.90;;;;;;4928718;29;20242;-77
2023/02/08 03:10:20;;;;;;;24.00;16.57;;;-1.60;99.90;;;;;;4929179;29;20194;-77
2023/02/08 03:12:57;;;;;;;19.57;13.50;;;-1.50;99.90;;;;;;4928352;29;20209;-77
2023/02/08 03:15:39;;;;;;;23.23;15.13;;;-1.60;99.90;;;;;;4928760;29;20209;-77
2023/02/08 03:18:21;;;;;;;17.67;12.70;;;-1.60;99.90;;;;;;4929021;29;20585;-77
2023/02/08 03:20:58;;;;;;;21.40;13.87;;;-1.50;99.90;;;;;;4927760;29;20217;-77
2023/02/08 03:23:29;;;;;;;22.70;14.83;;;-1.50;99.90;;;;;;4929323;29;20574;-77
2023/02/08 03:26:02;;;;;;;22.20;15.73;;;-1.60;99.90;;;;;;4928566;29;20305;-78
2023/02/08 03:28:37;;;;;;;22.13;14.50;;;-1.60;99.90;;;;;;4928789;29;20199;-77
2023/02/08 03:31:11;;;;;;;21.20;13.53;;;-1.60;99.90;;;;;;4929134;29;20197;-77
2023/02/08 03:33:44;;;;;;;21.20;14.73;;;-1.60;99.90;;;;;;4927985;29;20208;-78
2023/02/08 03:36:20;;;;;;;19.03;12.87;;;-1.60;99.90;;;;;;4929311;29;20506;-77
2023/02/08 03:38:50;;;;;;;18.10;13.63;;;-1.60;99.90;;;;;;4928341;29;20805;-78
2023/02/08 03:41:22;;;;;;;21.20;14.20;;;-1.60;99.90;;;;;;4928371;29;20600;-77
2023/02/08 03:43:54;;;;;;;22.93;14.77;;;-1.60;99.90;;;;;;4947180;29;20518;-79
2023/02/08 03:46:24;;;;;;;22.13;13.40;;;-1.60;99.90;;;;;;4947290;28;20781;-78
2023/02/08 03:48:59;;;;;;;21.07;14.17;;;-1.60;99.90;;;;;;4927624;29;20212;-78
2023/02/08 03:51:29;;;;;;;17.07;12.70;;;-1.70;99.90;;;;;;4928853;29;20200;-79
2023/02/08 03:53:58;;;;;;;19.30;13.03;;;-1.70;99.90;;;;;;4928585;29;20305;-77
2023/02/08 03:56:34;;;;;;;21.57;14.13;;;-1.70;99.90;;;;;;4927598;29;20301;-78
2023/02/08 03:59:06;;;;;;;21.80;14.40;;;-1.70;99.90;;;;;;4928288;29;20223;-78
2023/02/08 04:01:41;;;;;;;20.00;14.43;;;-1.70;99.90;;;;;;4927764;29;20206;-78
2023/02/08 04:04:09;;;;;;;22.63;14.30;;;-1.70;99.90;;;;;;4928611;29;20229;-77
2023/02/08 04:06:37;;;;;;;21.43;15.00;;;-1.70;99.90;;;;;;4927186;29;20294;-77
2023/02/08 04:09:04;;;;;;;20.17;13.80;;;-1.70;99.90;;;;;;4927111;29;20667;-76
2023/02/08 04:11:31;;;;;;;22.03;14.63;;;-1.80;99.90;;;;;;4927041;29;20300;-76
2023/02/08 04:13:58;;;;;;;20.00;13.53;;;-1.70;99.90;;;;;;4927184;29;20205;-78
2023/02/08 04:16:25;;;;;;;17.00;13.30;;;-1.70;99.90;;;;;;4927035;29;20216;-77
2023/02/08 04:18:52;;;;;;;19.67;13.60;;;-1.80;99.90;;;;;;4927860;29;20225;-77
2023/02/08 04:21:19;;;;;;;18.77;12.90;;;-1.80;99.90;;;;;;4928614;29;20998;-76
2023/02/08 04:23:47;;;;;;;19.53;14.17;;;-1.80;99.90;;;;;;4926951;29;20209;-77
2023/02/08 04:26:14;;;;;;;18.90;13.30;;;-1.80;99.90;;;;;;4927455;29;20237;-77
2023/02/08 04:28:41;;;;;;;22.10;14.50;;;-1.80;99.90;;;;;;4933993;29;20217;-77
2023/02/08 04:31:08;;;;;;;23.93;15.47;;;-1.80;99.90;;;;;;4946178;29;20297;-77
2023/02/08 04:33:35;;;;;;;19.53;13.20;;;-1.80;99.90;;;;;;4934768;29;20316;-76
2023/02/08 04:36:02;;;;;;;20.83;14.37;;;-1.80;99.90;;;;;;4927420;29;20213;-77
2023/02/08 04:38:29;;;;;;;20.87;14.60;;;-1.80;99.90;;;;;;4926830;29;20234;-77
2023/02/08 04:40:57;;;;;;;22.40;14.93;;;-1.90;99.90;;;;;;4927198;29;20202;-77
2023/02/08 04:43:24;;;;;;;22.80;15.07;;;-1.90;99.90;;;;;;4926503;29;20247;-77
2023/02/08 04:45:51;;;;;;;20.23;14.13;;;-1.80;99.90;;;;;;4926895;29;20263;-77
2023/02/08 04:48:19;;;;;;;19.87;14.40;;;-1.80;99.90;;;;;;4927192;29;20232;-77
2023/02/08 04:50:46;;;;;;;21.07;14.10;;;-1.80;99.90;;;;;;4926678;29;20198;-77
2023/02/08 04:53:14;;;;;;;19.87;14.20;;;-1.80;99.90;;;;;;4927349;29;20314;-77
2023/02/08 04:55:41;;;;;;;18.37;13.20;;;-1.80;99.90;;;;;;4927296;29;20321;-79
2023/02/08 04:58:09;;;;;;;20.53;13.90;;;-1.80;99.90;;;;;;4926275;29;20253;-76
2023/02/08 05:00:36;;;;;;;20.30;13.47;;;-1.80;99.90;;;;;;4926468;29;20230;-80
2023/02/08 05:03:03;;;;;;;18.80;13.57;;;-1.90;99.90;;;;;;4928615;29;20218;-77
2023/02/08 05:05:30;;;;;;;18.23;12.67;;;-1.90;99.90;;;;;;4945110;29;20729;-77
2023/02/08 05:07:57;;;;;;;20.33;13.73;;;-1.90;99.90;;;;;;4946040;28;20197;-78
2023/02/08 05:10:24;;;;;;;17.50;12.63;;;-1.90;99.90;;;;;;4945836;29;20653;-76
2023/02/08 05:12:51;;;;;;;23.03;13.90;;;-1.90;99.90;;;;;;4943861;28;20229;-77
2023/02/08 05:15:20;;;;;;;19.73;12.27;;;-1.90;99.90;;;;;;4945585;29;20280;-77
2023/02/08 05:17:46;;;;;;;20.70;13.43;;;-1.90;99.90;;;;;;4935907;29;20214;-77
2023/02/08 05:20:13;;;;;;;18.83;13.93;;;-1.90;99.90;;;;;;4926115;29;20226;-77
2023/02/08 05:22:40;;;;;;;22.60;15.27;;;-1.90;99.90;;;;;;4926625;28;20232;-77
2023/02/08 05:25:08;;;;;;;22.20;15.10;;;-2.00;99.90;;;;;;4926598;29;20201;-77
2023/02/08 05:27:36;;;;;;;24.63;15.33;;;-2.00;99.90;;;;;;4926146;29;20288;-77
2023/02/08 05:30:04;;;;;;;24.00;15.50;;;-2.00;99.90;;;;;;4926583;29;20603;-77
2023/02/08 05:32:32;;;;;;;21.50;14.87;;;-2.00;99.90;;;;;;4926304;29;20202;-78
2023/02/08 05:34:59;;;;;;;22.80;15.23;;;-2.00;99.90;;;;;;4925244;29;20205;-78
2023/02/08 05:37:26;;;;;;;20.77;13.93;;;-2.00;99.90;;;;;;4925274;29;20699;-77
2023/02/08 05:39:53;;;;;;;19.77;14.03;;;-2.00;99.90;;;;;;4925174;29;20252;-78
2023/02/08 05:42:20;;;;;;;21.77;14.00;;;-2.00;99.90;;;;;;4925310;29;20217;-79
2023/02/08 05:44:47;;;;;;;17.93;13.17;;;-2.00;99.90;;;;;;4926162;29;20302;-79
2023/02/08 05:47:14;;;;;;;20.50;14.37;;;-2.00;99.90;;;;;;4925720;29;20318;-79
2023/02/08 05:49:42;;;;;;;24.70;16.10;;;-2.00;99.90;;;;;;4926553;29;20206;-79
2023/02/08 05:52:09;;;;;;;23.90;15.43;;;-2.00;99.90;;;;;;4926139;29;20235;-78
2023/02/08 05:54:36;;;;;;;22.67;15.33;;;-2.00;99.90;;;;;;4925520;29;20940;-78
2023/02/08 05:57:03;;;;;;;21.87;15.27;;;-2.00;99.90;;;;;;4937770;28;20292;-78
2023/02/08 05:59:30;;;;;;;23.97;14.73;;;-2.00;99.90;;;;;;4944506;29;20320;-78
2023/02/08 06:01:57;;;;;;;21.53;14.57;;;-2.10;99.90;;;;;;4932986;29;20206;-78
2023/02/08 06:04:24;;;;;;;20.77;15.23;;;-2.00;99.90;;;;;;4925813;29;20345;-78
2023/02/08 06:06:52;;;;;;;24.43;15.53;;;-2.00;99.90;;;;;;4944547;29;20211;-78
2023/02/08 06:09:19;;;;;;;23.47;15.40;;;-2.10;99.90;;;;;;4944685;29;20213;-78
2023/02/08 06:11:46;;;;;;;24.97;16.00;;;-2.00;99.90;;;;;;4937807;28;20209;-79
2023/02/08 06:14:13;;;;;;;24.83;16.60;;;-2.10;99.90;;;;;;4932499;29;20300;-79
2023/02/08 06:16:39;;;;;;;22.40;15.83;;;-2.10;99.90;;;;;;4931442;29;20198;-79
2023/02/08 06:19:06;;;;;;;22.13;14.70;;;-2.00;99.90;;;;;;4932093;29;20323;-79
2023/02/08 06:21:33;;;;;;;27.63;17.10;;;-2.10;99.90;;;;;;4932365;29;20297;-78
2023/02/08 06:24:02;;;;;;;23.67;17.33;;;-2.10;99.90;;;;;;4931941;29;20201;-78
2023/02/08 06:26:29;;;;;;;23.83;15.77;;;-2.10;99.90;;;;;;4931892;29;20233;-79
2023/02/08 06:28:58;;;;;;;22.53;15.47;;;-2.10;99.90;;;;;;4932084;29;20273;-79
2023/02/08 06:31:25;;;;;;;23.23;15.53;;;-2.10;99.90;;;;;;4931408;29;20210;-79
2023/02/08 06:33:52;;;;;;;24.63;16.77;;;-2.10;99.90;;;;;;4931790;29;20217;-79
2023/02/08 06:36:19;;;;;;;25.03;15.90;;;-2.10;99.90;;;;;;4931218;29;20220;-80
2023/02/08 06:38:46;;;;;;;22.93;16.30;;;-2.10;99.90;;;;;;4931643;29;20226;-78
2023/02/08 06:41:14;;;;;;;21.17;15.83;;;-2.10;99.90;;;;;;4932002;29;20320;-79
2023/02/08 06:43:41;;;;;;;24.70;16.77;;;-2.10;99.90;;;;;;4931151;29;20228;-79
2023/02/08 06:46:08;;;;;;;24.00;16.47;;;-2.10;99.90;;;;;;4931837;29;20208;-79
2023/02/08 06:48:35;;;;;;;25.00;16.77;;;-2.10;99.90;;;;;;4931942;28;20210;-79
2023/02/08 06:51:02;;;;;;;21.47;15.83;;;-2.20;99.90;;;;;;4939438;29;20205;-79
2023/02/08 06:53:29;;;;;;;24.60;16.33;;;-2.10;99.90;;;;;;4950844;28;20284;-78
2023/02/08 06:55:56;;;;;;;25.47;16.53;;;-2.10;99.90;;;;;;4951447;29;20211;-78
2023/02/08 06:58:25;;;;;;;26.37;17.87;;;-2.20;99.90;;;;;;4935606;29;20209;-78
2023/02/08 07:00:52;;;;;;;25.13;18.50;;;-2.20;99.90;;;;;;4931945;29;20306;-79
2023/02/08 07:03:19;;;;;;;26.03;18.20;;;-2.10;99.90;;;;;;4931821;29;20194;-78
2023/02/08 07:05:46;;;;;;;23.13;16.17;;;-2.10;99.90;;;;;;4930936;29;20324;-78
2023/02/08 07:08:13;;;;;;;21.20;16.13;;;-2.10;99.90;;;;;;4932105;29;20214;-79
2023/02/08 07:10:40;;;;;;;20.67;15.17;;;-2.10;99.90;;;;;;4931241;29;20210;-79
2023/02/08 07:13:07;;;;;;;23.47;16.40;;;-2.10;99.90;;;;;;4930918;29;20232;-78
2023/02/08 07:15:35;;;;;;;24.93;15.63;;;-2.10;99.90;;;;;;4931220;29;20229;-79
2023/02/08 07:18:02;;;;;;;22.50;16.10;;;-2.10;99.90;;;;;;4931338;29;20210;-79
2023/02/08 07:20:30;;;;;;;23.97;16.23;;;-2.10;99.90;;;;;;4930292;29;20233;-78
2023/02/08 07:22:58;;;;;;;24.40;16.33;;;-2.10;99.90;;;;;;4937533;28;20208;-78
2023/02/08 07:25:24;;;;;;;26.77;16.87;;;-2.10;99.90;;;;;;4930825;29;20594;-77
2023/02/08 07:27:51;;;;;;;25.03;15.47;;;-2.10;99.90;;;;;;4928447;29;20607;-77
2023/02/08 07:30:19;;;;;;;29.20;17.63;;;-2.10;99.90;;;;;;4928258;29;21072;-77
2023/02/08 07:32:47;;;;;;;26.70;16.27;;;-2.20;99.90;;;;;;4927878;29;20260;-77
2023/02/08 07:35:14;;;;;;;26.57;17.70;;;-2.20;99.90;;;;;;4928644;29;20329;-78
2023/02/08 07:37:41;;;;;;;28.63;18.33;;;-2.20;99.90;;;;;;4928619;29;20232;-78
2023/02/08 07:40:08;;;;;;;26.40;17.87;;;-2.20;99.90;;;;;;4927640;29;20593;-78
2023/02/08 07:42:35;;;;;;;29.17;19.30;;;-2.20;99.90;;;;;;4928153;29;20242;-78
2023/02/08 07:45:03;;;;;;;25.87;18.10;;;-2.20;99.90;;;;;;4928172;29;20611;-78
2023/02/08 07:47:30;;;;;;;26.57;17.57;;;-2.20;99.90;;;;;;4927355;29;20206;-79
2023/02/08 07:49:58;;;;;;;27.83;18.03;;;-2.20;99.90;;;;;;4929563;29;20212;-80
2023/02/08 07:52:25;;;;;;;29.13;18.40;;;-2.20;99.90;;;;;;4928456;29;20208;-79
2023/02/08 07:54:52;;;;;;;29.67;18.77;;;-2.20;99.90;;;;;;4928315;29;20805;-79
2023/02/08 07:57:20;;;;;;;26.53;17.57;;;-2.20;99.90;;;;;;4928648;29;20567;-80
2023/02/08 08:00:07;;;;;;;31.33;19.87;;;-2.20;99.90;;;;;;4928207;29;20225;-79
2023/02/08 08:02:34;;;;;;;27.37;17.03;;;-2.10;99.90;;;;;;4927237;29;20214;-78
2023/02/08 08:05:02;;;;;;;31.37;20.10;;;-2.10;99.90;;;;;;4928333;29;20601;-79
2023/02/08 08:07:29;;;;;;;34.83;21.53;;;-2.10;99.90;;;;;;4927644;29;20205;-80
2023/02/08 08:09:56;;;;;;;28.47;18.23;;;-2.10;99.90;;;;;;4938110;29;20304;-79
2023/02/08 08:12:23;;;;;;;29.90;20.17;;;-2.00;99.90;;;;;;4945382;29;20217;-77
2023/02/08 08:14:51;;;;;;;29.63;19.90;;;-2.00;99.90;;;;;;4944377;29;20216;-79
2023/02/08 08:17:18;;;;;;;29.60;19.33;;;-2.00;99.90;;;;;;4926406;29;20209;-78
2023/02/08 08:33:25;;;;;;;27.63;17.23;;;-1.60;99.90;;;;;;4830919;29;20905;-79
2023/02/08 08:35:52;;;;;;;27.77;18.33;;;-1.50;99.90;;;;;;4923372;29;20732;-79
2023/02/08 08:38:19;;;;;;;26.47;17.50;;;-1.30;99.90;;;;;;4922639;29;20638;-79
2023/02/08 08:40:46;;;;;;;28.80;18.23;;;-1.20;99.90;;;;;;4923054;29;20782;-79
2023/02/08 08:43:14;;;;;;;29.43;18.57;;;-1.00;99.90;;;;;;4915994;29;20213;-79
2023/02/08 08:45:41;;;;;;;26.07;17.17;;;-0.90;99.90;;;;;;4916419;29;20244;-80
2023/02/08 08:48:12;;;;;;;30.03;18.33;;;-0.80;99.90;;;;;;4923389;29;20304;-79
2023/02/08 08:50:41;;;;;;;27.17;18.07;;;-0.70;99.90;;;;;;4917008;29;20607;-80
2023/02/08 08:53:09;;;;;;;26.90;18.63;;;-0.50;99.90;;;;;;4925568;29;20273;-80
2023/02/08 08:55:36;;;;;;;29.73;18.50;;;-0.40;99.90;;;;;;4924740;29;20296;-80
2023/02/08 08:58:02;;;;;;;29.97;18.47;;;-0.30;99.90;;;;;;4924697;29;20198;-79
2023/02/08 09:00:29;;;;;;;28.03;18.77;;;-0.30;99.90;;;;;;4924651;29;20333;-80
2023/02/08 09:02:56;;;;;;;30.70;17.87;;;-0.20;99.90;;;;;;4910094;29;20294;-79
2023/02/08 09:05:23;;;;;;;30.33;19.33;;;-0.10;99.90;;;;;;4906180;29;20606;-80
2023/02/08 09:07:51;;;;;;;27.07;17.83;;;0.00;99.90;;;;;;4908041;29;20325;-80
2023/02/08 09:10:18;;;;;;;26.40;18.07;;;0.00;99.90;;;;;;4924789;29;20537;-80
2023/02/08 09:12:45;;;;;;;29.13;17.97;;;0.10;99.90;;;;;;4924583;29;20232;-80
2023/02/08 09:15:12;;;;;;;28.53;17.67;;;0.20;99.90;;;;;;4925106;29;20242;-80
2023/02/08 09:17:39;;;;;;;31.13;18.40;;;0.10;99.90;;;;;;4916155;29;20370;-81
2023/02/08 09:20:07;;;;;;;31.00;20.00;;;0.20;99.90;;;;;;4918964;29;20213;-79
2023/02/08 09:22:34;;;;;;;36.87;20.10;;;0.20;99.90;;;;;;4927552;29;20212;-81
2023/02/08 09:25:04;;;;;;;32.40;18.87;;;0.30;99.90;;;;;;4945187;29;20217;-79
2023/02/08 09:27:31;;;;;;;23.67;17.40;;;0.30;99.90;;;;;;4946649;29;20209;-81
2023/02/08 09:29:58;;;;;;;25.17;16.20;;;0.40;99.90;;;;;;4936444;29;20774;-81
2023/02/08 09:32:25;;;;;;;25.27;16.57;;;0.40;99.90;;;;;;4936542;28;20205;-81
2023/02/08 09:34:52;;;;;;;24.63;17.03;;;0.40;99.90;;;;;;4944754;29;20201;-80
2023/02/08 09:37:19;;;;;;;24.00;17.23;;;0.60;99.90;;;;;;4938447;28;20237;-80
2023/02/08 09:39:46;;;;;;;24.97;16.80;;;0.60;99.90;;;;;;4944952;29;20215;-80
2023/02/08 09:42:26;;;;;;;26.40;18.13;;;0.70;99.90;;;;;;4946303;28;20239;-81
2023/02/08 09:45:11;;;;;;;27.97;16.53;;;0.70;99.90;;;;;;4942530;29;20209;-81
2023/02/08 09:47:44;;;;;;;26.13;16.90;;;0.80;99.90;;;;;;4953596;28;20208;-80
2023/02/08 09:50:16;;;;;;;21.00;15.83;;;0.90;99.90;;;;;;4947612;28;20248;-81
2023/02/08 09:52:49;;;;;;;23.60;16.00;;;0.90;99.90;;;;;;4947265;28;20296;-82
2023/02/08 09:55:32;;;;;;;20.83;16.13;;;1.00;99.90;;;;;;4934955;29;20222;-82
2023/02/08 09:58:04;;;;;;;24.00;16.07;;;1.00;99.90;;;;;;4944137;28;20312;-81
2023/02/08 10:00:35;;;;;;;26.83;16.17;;;1.10;99.90;;;;;;4948907;29;20312;-82
2023/02/08 10:03:03;;;;;;;27.43;17.03;;;1.20;99.90;;;;;;4949755;29;20197;-83
2023/02/08 10:05:32;;;;;;;23.23;15.50;;;1.30;99.90;;;;;;4946887;29;20245;-83
2023/02/08 10:08:01;;;;;;;24.53;15.57;;;1.30;99.90;;;;;;4948556;28;20333;-82
2023/02/08 10:10:41;;;;;;;25.27;15.60;;;1.40;99.90;;;;;;4937503;28;20296;-80
2023/02/08 10:13:28;;;;;;;23.60;15.73;;;1.50;99.90;;;;;;4928085;29;20867;-83
2023/02/08 10:16:06;;;;;;;22.40;15.40;;;1.60;99.90;;;;;;4924902;29;20286;-81
2023/02/08 10:18:43;;;;;;;24.17;16.13;;;1.70;99.90;;;;;;4924811;29;20205;-83
2023/02/08 10:21:23;;;;;;;23.60;16.23;;;1.80;99.90;;;;;;4926517;29;20237;-83
2023/02/08 10:24:08;;;;;;;22.70;13.77;;;2.00;99.90;;;;;;4927040;29;20197;-83
2023/02/08 10:26:43;;;;;;;24.70;15.10;;;2.10;99.90;;;;;;4924796;29;20281;-79
2023/02/08 10:29:52;;;;;;;20.70;13.37;;;2.20;99.90;;;;;;4925849;29;20265;-80
2023/02/08 10:32:34;;;;;;;20.00;13.27;;;2.30;99.90;;;;;;4926418;28;20247;-79
2023/02/08 10:35:06;;;;;;;23.30;14.30;;;2.40;99.90;;;;;;4941677;28;20515;-82
2023/02/08 10:37:34;;;;;;;21.50;15.17;;;2.50;99.90;;;;;;4935741;28;20324;-81
2023/02/08 10:40:16;;;;;;;21.93;12.80;;;2.50;99.90;;;;;;4949071;28;20201;-81
2023/02/08 10:42:47;;;;;;;17.57;12.43;;;2.60;99.90;;;;;;4942400;29;20206;-79
2023/02/08 10:45:24;;;;;;;16.93;12.40;;;2.70;99.90;;;;;;4941611;28;20197;-81
2023/02/08 10:47:54;;;;;;;20.53;13.00;;;2.80;99.90;;;;;;4945305;29;20207;-81
2023/02/08 10:50:29;;;;;;;19.50;13.73;;;2.90;99.90;;;;;;4944092;28;20204;-81
2023/02/08 10:52:56;;;;;;;16.03;12.27;;;2.90;99.90;;;;;;4934405;29;20285;-80
2023/02/08 10:55:23;;;;;;;19.47;13.13;;;3.00;99.90;;;;;;4944127;28;20756;-81
2023/02/08 10:57:53;;;;;;;17.60;13.07;;;3.10;99.90;;;;;;4939475;28;20341;-80
2023/02/08 11:00:25;;;;;;;17.37;12.67;;;3.20;99.90;;;;;;4941228;28;20300;-81
2023/02/08 11:02:54;;;;;;;17.47;12.87;;;3.30;99.90;;;;;;4942339;29;20230;-80
2023/02/08 11:05:31;;;;;;;17.00;12.60;;;3.40;99.90;;;;;;4940055;28;20749;-79
2023/02/08 11:08:06;;;;;;;17.10;13.03;;;3.50;99.90;;;;;;4948284;29;20887;-80
2023/02/08 11:10:33;;;;;;;15.37;11.90;;;3.70;99.90;;;;;;4944296;28;20320;-78
2023/02/08 11:13:04;;;;;;;16.47;11.47;;;3.80;99.90;;;;;;4930484;29;20209;-84
2023/02/08 11:15:39;;;;;;;17.53;12.30;;;3.90;99.90;;;;;;4944061;28;20198;-82
2023/02/08 11:18:15;;;;;;;16.47;12.20;;;3.90;99.90;;;;;;4939898;29;20540;-80
2023/02/08 11:20:47;;;;;;;18.17;12.57;;;4.00;99.90;;;;;;4942392;28;20220;-81
2023/02/08 11:23:22;;;;;;;16.30;11.97;;;4.10;99.90;;;;;;4948140;29;20214;-84
2023/02/08 11:25:49;;;;;;;16.43;11.47;;;4.20;99.90;;;;;;4949956;28;20201;-83
2023/02/08 11:28:26;;;;;;;18.90;11.37;;;4.20;99.90;;;;;;4950069;29;20201;-79
2023/02/08 11:31:00;;;;;;;18.37;11.87;;;4.30;99.90;;;;;;4948784;28;20248;-81
2023/02/08 11:33:27;;;;;;;14.53;10.80;;;4.40;99.90;;;;;;4945401;28;20209;-80
2023/02/08 11:36:07;;;;;;;13.57;11.17;;;4.50;99.90;;;;;;4937323;28;21028;-80
2023/02/08 11:38:36;;;;;;;20.40;12.93;;;4.60;99.90;;;;;;4948737;29;20757;-81
2023/02/08 11:41:13;;;;;;;18.50;11.20;;;4.70;99.90;;;;;;4935397;28;20225;-82
2023/02/08 11:43:40;;;;;;;17.00;10.60;;;4.80;99.90;;;;;;4930147;29;20893;-83
2023/02/08 11:46:11;;;;;;;15.87;10.87;;;4.90;99.90;;;;;;4944651;28;20209;-81
2023/02/08 11:48:44;;;;;;;15.93;10.27;;;4.90;99.90;;;;;;4949279;28;20214;-81
2023/02/08 11:51:22;;;;;;;14.17;10.53;;;5.00;99.90;;;;;;4950131;28;20721;-83
2023/02/08 11:53:49;;;;;;;15.30;11.13;;;5.10;99.90;;;;;;4949648;28;20937;-82
2023/02/08 11:56:19;;;;;;;12.77;10.17;;;5.20;99.90;;;;;;4931483;29;20785;-81
2023/02/08 11:59:06;;;;;;;13.17;10.27;;;5.20;99.90;;;;;;4928010;28;20297;-80
2023/02/08 12:01:36;;;;;;;14.50;9.73;;;5.30;99.90;;;;;;4937613;28;20229;-78
2023/02/08 12:04:06;;;;;;;12.20;9.33;;;5.30;99.90;;;;;;4928172;29;20274;-79
2023/02/08 12:07:03;;;;;;;14.37;9.57;;;5.40;99.90;;;;;;4944665;28;20744;-78
2023/02/08 12:09:59;;;;;;;14.33;10.17;;;5.40;99.90;;;;;;4941913;28;20632;-79
2023/02/08 12:12:37;;;;;;;10.37;8.30;;;5.50;99.90;;;;;;4941931;28;20209;-79
2023/02/08 12:15:15;;;;;;;10.80;8.83;;;5.50;99.90;;;;;;4943727;28;20423;-78
2023/02/08 12:18:14;;;;;;;9.63;7.83;;;5.50;99.90;;;;;;4946076;28;20608;-79
2023/02/08 12:20:42;;;;;;;10.23;7.50;;;5.60;99.90;;;;;;4943475;28;20323;-78
2023/02/08 12:23:42;;;;;;;9.53;7.10;;;5.70;99.90;;;;;;4936757;28;20226;-78
2023/02/08 12:26:17;;;;;;;9.90;7.13;;;5.70;99.90;;;;;;4936995;28;20201;-79
2023/02/08 12:29:06;;;;;;;9.50;6.77;;;5.70;99.90;;;;;;4945040;28;20197;-78
2023/02/08 12:31:48;;;;;;;9.13;6.90;;;5.70;99.90;;;;;;4957701;28;20292;-79
2023/02/08 12:34:22;;;;;;;10.93;6.93;;;5.80;99.90;;;;;;4964750;28;20203;-79
2023/02/08 12:42:53;;;;;;;9.40;7.00;;;6.00;99.90;;;;;;4926036;29;20236;-80
2023/02/08 12:45:45;;;;;;;6.90;6.00;;;6.00;99.90;;;;;;4926950;29;20475;-79
2023/02/08 12:48:27;;;;;;;8.43;6.90;;;6.00;99.90;;;;;;4944497;28;20262;-79
2023/02/08 12:51:04;;;;;;;8.17;6.47;;;6.10;99.90;;;;;;4946500;28;20277;-80
2023/02/08 12:53:34;;;;;;;6.37;5.73;;;6.10;99.90;;;;;;4939765;28;20202;-78
2023/02/08 12:56:06;;;;;;;11.47;6.73;;;6.20;99.90;;;;;;4927672;29;20198;-79
2023/02/08 12:58:43;;;;;;;7.97;6.47;;;6.20;99.90;;;;;;4926496;29;20651;-79
2023/02/08 13:01:14;;;;;;;11.00;6.40;;;6.20;99.90;;;;;;4926995;29;20212;-81
2023/02/08 13:03:48;;;;;;;8.13;6.20;;;6.30;99.90;;;;;;4926771;29;20194;-77
2023/02/08 13:06:21;;;;;;;8.63;6.47;;;6.30;99.90;;;;;;4927301;29;20239;-80
2023/02/08 13:08:52;;;;;;;8.57;6.27;;;6.40;99.90;;;;;;4925476;29;20328;-80
2023/02/08 13:11:29;;;;;;;7.80;6.10;;;6.40;99.90;;;;;;4925643;29;20634;-80